createdAt,value
2018-05-26T00:01:07.521Z,13.95
2018-05-26T00:04:13.635Z,13.94
2018-05-26T00:07:19.306Z,13.90
2018-05-26T00:10:24.962Z,13.85
2018-05-26T00:13:31.617Z,13.79
2018-05-26T00:16:36.838Z,13.78
2018-05-26T00:19:42.046Z,13.77
2018-05-26T00:22:52.980Z,13.74
2018-05-26T00:25:58.720Z,13.70
2018-05-26T00:29:04.837Z,13.71
2018-05-26T00:32:11.781Z,13.72
2018-05-26T00:35:17.604Z,13.75
2018-05-26T00:38:22.813Z,13.74
2018-05-26T00:41:28.562Z,13.82
2018-05-26T00:44:33.778Z,13.83
2018-05-26T00:47:39.123Z,13.94
2018-05-26T00:50:46.107Z,13.90
2018-05-26T00:53:51.852Z,13.98
2018-05-26T00:56:57.800Z,13.97
2018-05-26T01:00:03.313Z,13.89
2018-05-26T01:03:09.367Z,13.90
2018-05-26T01:06:14.310Z,13.94
2018-05-26T01:09:19.937Z,13.98
2018-05-26T01:12:26.088Z,14.06
2018-05-26T01:15:32.252Z,14.10
2018-05-26T01:18:38.091Z,14.15
2018-05-26T01:21:45.150Z,14.18
2018-05-26T01:24:51.073Z,14.11
2018-05-26T01:27:57.101Z,14.19
2018-05-26T01:31:03.041Z,14.29
2018-05-26T01:34:08.017Z,14.34
2018-05-26T01:37:14.093Z,14.39
2018-05-26T01:40:20.113Z,14.37
2018-05-26T01:43:26.069Z,14.37
2018-05-26T01:46:32.060Z,14.27
2018-05-26T01:49:37.241Z,14.23
2018-05-26T01:52:43.655Z,14.20
2018-05-26T01:55:49.297Z,14.18
2018-05-26T01:58:55.434Z,14.11
2018-05-26T02:02:01.062Z,14.09
2018-05-26T02:05:07.291Z,14.08
2018-05-26T02:08:13.292Z,14.05
2018-05-26T02:11:19.450Z,14.03
2018-05-26T02:14:24.653Z,13.99
2018-05-26T02:17:30.592Z,13.97
2018-05-26T02:20:36.634Z,13.88
2018-05-26T02:23:41.886Z,13.89
2018-05-26T02:26:47.118Z,13.91
2018-05-26T02:29:52.328Z,13.87
2018-05-26T02:32:57.546Z,13.85
2018-05-26T02:36:04.698Z,13.81
2018-05-26T02:39:11.537Z,13.79
2018-05-26T02:42:17.351Z,13.77
2018-05-26T02:45:23.196Z,13.71
2018-05-26T02:48:29.128Z,13.70
2018-05-26T02:51:36.061Z,13.65
2018-05-26T02:54:41.897Z,13.63
2018-05-26T02:57:47.158Z,13.63
2018-05-26T03:00:54.021Z,13.56
2018-05-26T03:03:58.849Z,13.58
2018-05-26T03:07:10.843Z,13.53
2018-05-26T03:10:21.165Z,13.53
2018-05-26T03:13:32.386Z,13.46
2018-05-26T03:16:41.318Z,13.41
2018-05-26T03:19:47.798Z,13.44
2018-05-26T03:22:53.417Z,13.41
2018-05-26T03:25:59.354Z,13.37
2018-05-26T03:29:06.287Z,13.30
2018-05-26T03:32:12.125Z,13.27
2018-05-26T03:35:19.065Z,13.24
2018-05-26T03:38:24.894Z,13.18
2018-05-26T03:41:31.850Z,13.20
2018-05-26T03:44:37.690Z,13.19
2018-05-26T03:47:44.741Z,13.19
2018-05-26T03:50:50.557Z,13.18
2018-05-26T03:53:56.411Z,13.15
2018-05-26T04:00:40.327Z,13.21
2018-05-26T04:03:45.534Z,13.20
2018-05-26T04:06:51.162Z,13.21
2018-05-26T04:09:57.225Z,13.23
2018-05-26T04:13:03.070Z,13.26
2018-05-26T04:16:08.813Z,13.24
2018-05-26T04:19:14.711Z,13.24
2018-05-26T04:22:20.845Z,13.26
2018-05-26T04:25:26.982Z,13.29
2018-05-26T04:28:32.919Z,13.43
2018-05-26T04:31:38.778Z,13.42
2018-05-26T04:34:44.721Z,13.41
2018-05-26T04:37:50.658Z,13.44
2018-05-26T04:40:55.898Z,13.49
2018-05-26T04:44:01.133Z,13.50
2018-05-26T04:47:07.251Z,13.62
2018-05-26T04:50:12.466Z,13.67
2018-05-26T04:53:17.703Z,13.70
2018-05-26T04:56:23.831Z,13.73
2018-05-26T04:59:29.452Z,13.77
2018-05-26T05:02:34.667Z,13.81
2018-05-26T05:05:40.848Z,13.85
2018-05-26T05:08:47.967Z,13.91
2018-05-26T05:11:53.826Z,13.95
2018-05-26T05:14:59.490Z,13.98
2018-05-26T05:18:05.039Z,14.03
2018-05-26T05:21:10.260Z,14.06
2018-05-26T05:24:15.904Z,14.13
2018-05-26T05:27:21.827Z,14.16
2018-05-26T05:30:27.761Z,14.19
2018-05-26T05:33:33.794Z,14.22
2018-05-26T05:36:39.638Z,14.25
2018-05-26T05:39:45.569Z,14.30
2018-05-26T05:42:51.711Z,14.34
2018-05-26T05:45:56.924Z,14.38
2018-05-26T05:49:03.063Z,14.43
2018-05-26T05:52:08.274Z,14.48
2018-05-26T05:55:14.360Z,14.53
2018-05-26T05:58:19.735Z,14.59
2018-05-26T06:01:25.352Z,14.64
2018-05-26T06:04:31.731Z,14.69
2018-05-26T06:07:37.872Z,14.75
2018-05-26T06:10:43.099Z,14.80
2018-05-26T06:13:48.969Z,14.86
2018-05-26T06:16:54.185Z,14.92
2018-05-26T06:19:59.395Z,14.98
2018-05-26T06:23:04.614Z,15.04
2018-05-26T06:26:10.760Z,15.10
2018-05-26T06:29:15.954Z,15.16
2018-05-26T06:32:22.102Z,15.23
2018-05-26T06:35:27.735Z,15.29
2018-05-26T06:38:33.766Z,15.35
2018-05-26T06:41:39.618Z,15.42
2018-05-26T06:44:45.647Z,15.50
2018-05-26T06:47:50.863Z,15.57
2018-05-26T06:50:56.073Z,15.63
2018-05-26T06:54:01.291Z,15.71
2018-05-26T06:57:06.500Z,15.78
2018-05-26T07:00:12.472Z,15.85
2018-05-26T07:03:17.879Z,15.92
2018-05-26T07:06:24.022Z,16.00
2018-05-26T07:09:28.999Z,16.08
2018-05-26T07:12:34.979Z,16.17
2018-05-26T07:15:39.869Z,16.26
2018-05-26T07:18:46.522Z,16.34
2018-05-26T07:21:52.342Z,16.44
2018-05-26T07:24:57.557Z,16.53
2018-05-26T07:28:04.162Z,16.63
2018-05-26T07:31:09.358Z,16.72
2018-05-26T07:34:15.289Z,16.82
2018-05-26T07:37:21.511Z,16.94
2018-05-26T07:40:26.715Z,17.06
2018-05-26T07:43:31.942Z,17.16
2018-05-26T07:46:37.142Z,17.27
2018-05-26T07:49:43.283Z,17.38
2018-05-26T07:52:49.308Z,17.50
2018-05-26T07:55:54.518Z,17.62
2018-05-26T07:59:00.196Z,17.74
2018-05-26T08:02:06.207Z,17.84
2018-05-26T08:05:11.426Z,17.95
2018-05-26T08:08:17.369Z,18.09
2018-05-26T08:11:22.600Z,18.20
2018-05-26T08:14:28.510Z,18.32
2018-05-26T08:17:33.730Z,18.44
2018-05-26T08:20:38.953Z,18.58
2018-05-26T08:23:44.955Z,18.71
2018-05-26T08:26:51.092Z,18.86
2018-05-26T08:29:57.315Z,18.97
2018-05-26T08:33:03.142Z,19.10
2018-05-26T08:36:08.362Z,19.21
2018-05-26T08:39:14.581Z,19.34
2018-05-26T08:42:20.394Z,19.47
2018-05-26T08:45:25.422Z,19.60
2018-05-26T08:48:30.785Z,19.73
2018-05-26T08:51:36.423Z,19.89
2018-05-26T08:54:42.478Z,20.04
2018-05-26T08:57:48.627Z,20.18
2018-05-26T09:00:54.658Z,20.33
2018-05-26T09:04:00.390Z,20.47
2018-05-26T09:07:06.406Z,20.61
2018-05-26T09:10:11.626Z,20.76
2018-05-26T09:13:17.775Z,20.89
2018-05-26T09:16:23.841Z,21.04
2018-05-26T09:19:29.043Z,21.18
2018-05-26T09:22:35.183Z,21.31
2018-05-26T09:25:41.322Z,21.44
2018-05-26T09:28:47.443Z,21.59
2018-05-26T09:31:53.087Z,21.71
2018-05-26T09:34:58.315Z,21.85
2018-05-26T09:38:03.946Z,22.00
2018-05-26T09:41:10.085Z,22.11
2018-05-26T09:44:15.727Z,22.24
2018-05-26T09:47:21.665Z,22.39
2018-05-26T09:50:28.393Z,22.55
2018-05-26T09:53:34.019Z,22.71
2018-05-26T09:56:39.238Z,22.90
2018-05-26T09:59:44.886Z,23.01
2018-05-26T10:02:51.022Z,23.11
2018-05-26T10:05:56.232Z,23.19
2018-05-26T10:09:01.862Z,23.24
2018-05-26T10:12:08.539Z,23.23
2018-05-26T10:15:13.758Z,23.27
2018-05-26T10:18:19.386Z,23.30
2018-05-26T10:21:24.603Z,23.39
2018-05-26T10:24:30.949Z,23.46
2018-05-26T10:27:37.069Z,23.49
2018-05-26T10:30:42.719Z,23.52
2018-05-26T10:33:47.922Z,23.58
2018-05-26T10:36:52.854Z,23.63
2018-05-26T10:39:59.000Z,23.69
2018-05-26T10:43:04.206Z,23.75
2018-05-26T10:46:21.015Z,23.82
2018-05-26T10:49:25.924Z,23.84
2018-05-26T10:52:31.286Z,23.90
2018-05-26T10:55:36.226Z,23.93
2018-05-26T10:58:41.149Z,23.97
2018-05-26T11:01:46.813Z,24.01
2018-05-26T11:04:52.658Z,24.02
2018-05-26T11:07:58.538Z,24.06
2018-05-26T11:11:03.466Z,24.11
2018-05-26T11:14:08.979Z,24.16
2018-05-26T11:17:14.234Z,24.16
2018-05-26T11:20:19.172Z,24.18
2018-05-26T11:23:25.374Z,24.19
2018-05-26T11:26:30.997Z,24.20
2018-05-26T11:29:36.856Z,24.23
2018-05-26T11:32:41.967Z,24.26
2018-05-26T11:35:47.663Z,24.30
2018-05-26T11:38:52.594Z,24.35
2018-05-26T11:41:57.973Z,24.38
2018-05-26T11:45:02.975Z,24.45
2018-05-26T11:48:07.910Z,24.45
2018-05-26T11:51:13.266Z,24.48
2018-05-26T11:54:18.211Z,24.52
2018-05-26T11:57:23.551Z,24.58
2018-05-26T12:00:28.928Z,24.64
2018-05-26T12:03:34.883Z,24.68
2018-05-26T12:06:40.460Z,24.74
2018-05-26T12:09:46.400Z,24.80
2018-05-26T12:12:51.940Z,24.83
2018-05-26T12:15:57.080Z,24.89
2018-05-26T12:19:02.712Z,24.92
2018-05-26T12:22:07.642Z,24.96
2018-05-26T12:25:13.006Z,24.99
2018-05-26T12:28:18.867Z,25.01
2018-05-26T12:31:24.737Z,25.08
2018-05-26T12:34:30.767Z,25.11
2018-05-26T12:37:36.407Z,25.15
2018-05-26T12:40:42.171Z,25.19
2018-05-26T12:43:47.169Z,25.24
2018-05-26T12:46:53.258Z,25.30
2018-05-26T12:49:58.815Z,25.32
2018-05-26T12:53:03.742Z,25.33
2018-05-26T12:56:09.102Z,25.34
2018-05-26T12:59:14.222Z,25.35
2018-05-26T13:02:20.616Z,25.38
2018-05-26T13:05:25.562Z,25.39
2018-05-26T13:08:31.416Z,25.43
2018-05-26T13:11:36.355Z,25.44
2018-05-26T13:14:41.705Z,25.46
2018-05-26T13:17:47.651Z,25.48
2018-05-26T13:20:53.198Z,25.45
2018-05-26T13:23:58.831Z,25.45
2018-05-26T13:27:04.283Z,25.48
2018-05-26T13:30:09.215Z,25.50
2018-05-26T13:33:14.158Z,25.48
2018-05-26T13:36:19.101Z,25.49
2018-05-26T13:39:23.702Z,25.50
2018-05-26T13:42:29.720Z,25.55
2018-05-26T13:45:35.763Z,25.61
2018-05-26T13:48:41.812Z,25.65
2018-05-26T13:51:47.865Z,25.69
2018-05-26T13:54:53.839Z,25.74
2018-05-26T13:57:59.569Z,25.76
2018-05-26T14:01:05.750Z,25.75
2018-05-26T14:04:11.563Z,25.76
2018-05-26T14:07:17.502Z,25.80
2018-05-26T14:10:23.660Z,25.81
2018-05-26T14:13:32.462Z,25.80
2018-05-26T14:16:38.138Z,25.80
2018-05-26T14:19:43.498Z,25.79
2018-05-26T14:22:48.730Z,25.78
2018-05-26T14:25:54.465Z,25.80
2018-05-26T14:29:00.618Z,25.80
2018-05-26T14:32:05.483Z,25.81
2018-05-26T14:35:10.894Z,25.76
2018-05-26T14:38:16.111Z,25.76
2018-05-26T14:41:21.314Z,25.75
2018-05-26T14:44:26.534Z,25.80
2018-05-26T14:47:32.767Z,25.85
2018-05-26T14:50:38.887Z,25.86
2018-05-26T14:53:44.121Z,25.82
2018-05-26T14:56:48.998Z,25.80
2018-05-26T14:59:54.729Z,25.77
2018-05-26T15:03:00.761Z,25.78
2018-05-26T15:06:06.810Z,25.79
2018-05-26T15:09:12.959Z,25.82
2018-05-26T15:12:19.171Z,25.83
2018-05-26T15:15:25.214Z,25.78
2018-05-26T15:18:30.427Z,25.78
2018-05-26T15:21:35.818Z,25.77
2018-05-26T15:24:41.944Z,25.73
2018-05-26T15:27:48.194Z,25.73
2018-05-26T15:30:54.013Z,25.75
2018-05-26T15:33:59.243Z,25.73
2018-05-26T15:37:04.642Z,25.70
2018-05-26T15:40:10.357Z,25.70
2018-05-26T15:43:16.520Z,25.69
2018-05-26T15:46:21.718Z,25.66
2018-05-26T15:49:27.862Z,25.62
2018-05-26T15:52:33.074Z,25.60
2018-05-26T15:55:38.797Z,25.52
2018-05-26T15:58:44.038Z,25.47
2018-05-26T16:01:49.439Z,25.40
2018-05-26T16:04:55.167Z,25.34
2018-05-26T16:08:01.318Z,25.26
2018-05-26T16:11:06.904Z,25.15
2018-05-26T16:14:13.050Z,25.09
2018-05-26T16:17:18.248Z,24.99
2018-05-26T16:20:23.470Z,24.92
2018-05-26T16:23:29.395Z,24.82
2018-05-26T16:26:34.611Z,24.78
2018-05-26T16:29:40.239Z,24.73
2018-05-26T16:32:46.200Z,24.66
2018-05-26T16:35:52.376Z,24.59
2018-05-26T16:39:00.496Z,24.52
2018-05-26T16:42:06.341Z,24.47
2018-05-26T16:45:11.559Z,24.41
2018-05-26T16:48:17.585Z,24.34
2018-05-26T16:51:23.814Z,24.27
2018-05-26T16:54:29.667Z,24.20
2018-05-26T16:57:34.911Z,24.15
2018-05-26T17:00:40.127Z,24.09
2018-05-26T17:03:46.261Z,24.02
2018-05-26T17:06:52.199Z,23.96
2018-05-26T17:09:58.244Z,23.88
2018-05-26T17:13:04.183Z,23.82
2018-05-26T17:16:10.312Z,23.75
2018-05-26T17:19:15.550Z,23.69
2018-05-26T17:22:20.762Z,23.59
2018-05-26T17:25:25.971Z,23.53
2018-05-26T17:28:32.093Z,23.46
2018-05-26T17:31:38.234Z,23.38
2018-05-26T17:34:44.387Z,23.30
2018-05-26T17:37:50.436Z,23.22
2018-05-26T17:40:55.864Z,23.13
2018-05-26T17:44:01.970Z,23.08
2018-05-26T17:47:07.611Z,23.01
2018-05-26T17:50:13.661Z,22.93
2018-05-26T17:53:19.782Z,22.83
2018-05-26T17:56:25.010Z,22.73
2018-05-26T17:59:31.158Z,22.64
2018-05-26T18:02:37.291Z,22.57
2018-05-26T18:05:43.433Z,22.49
2018-05-26T18:08:49.357Z,22.40
2018-05-26T18:11:55.396Z,22.32
2018-05-26T18:15:01.681Z,22.24
2018-05-26T18:18:07.561Z,22.16
2018-05-26T18:21:13.464Z,22.09
2018-05-26T18:24:20.599Z,22.01
2018-05-26T18:27:26.444Z,21.92
2018-05-26T18:30:32.363Z,21.84
2018-05-26T18:33:38.498Z,21.78
2018-05-26T18:36:44.638Z,21.71
2018-05-26T18:39:49.878Z,21.63
2018-05-26T18:42:55.099Z,21.55
2018-05-26T18:46:00.316Z,21.49
2018-05-26T18:49:06.428Z,21.41
2018-05-26T18:52:12.564Z,21.32
2018-05-26T18:55:18.678Z,21.26
2018-05-26T18:58:24.307Z,21.19
2018-05-26T19:01:30.346Z,21.14
2018-05-26T19:04:35.919Z,21.07
2018-05-26T19:07:41.138Z,20.99
2018-05-26T19:10:47.143Z,20.92
2018-05-26T19:13:52.368Z,20.87
2018-05-26T19:16:58.280Z,20.81
2018-05-26T19:20:04.272Z,20.73
2018-05-26T19:23:10.130Z,20.67
2018-05-26T19:26:16.241Z,20.59
2018-05-26T19:29:21.873Z,20.52
2018-05-26T19:32:26.753Z,20.44
2018-05-26T19:35:31.961Z,20.35
2018-05-26T19:38:37.775Z,20.26
2018-05-26T19:41:42.999Z,20.19
2018-05-26T19:44:48.227Z,20.11
2018-05-26T19:47:54.015Z,20.07
2018-05-26T19:51:00.034Z,19.96
2018-05-26T19:54:05.866Z,19.92
2018-05-26T19:57:11.795Z,19.85
2018-05-26T20:00:17.010Z,19.76
2018-05-26T20:03:22.215Z,19.70
2018-05-26T20:06:27.431Z,19.62
2018-05-26T20:09:32.638Z,19.53
2018-05-26T20:12:38.688Z,19.48
2018-05-26T20:15:44.708Z,19.40
2018-05-26T20:18:50.539Z,19.37
2018-05-26T20:21:56.506Z,19.29
2018-05-26T20:25:02.653Z,19.23
2018-05-26T20:28:08.609Z,19.17
2018-05-26T20:31:14.734Z,19.10
2018-05-26T20:34:20.666Z,18.98
2018-05-26T20:37:26.483Z,18.94
2018-05-26T20:40:32.503Z,18.87
2018-05-26T20:43:38.415Z,18.74
2018-05-26T20:46:45.319Z,18.68
2018-05-26T20:49:51.197Z,18.57
2018-05-26T20:52:57.237Z,18.47
2018-05-26T20:56:02.453Z,18.46
2018-05-26T20:59:07.698Z,18.45
2018-05-26T21:02:12.907Z,18.41
2018-05-26T21:05:19.065Z,18.29
2018-05-26T21:08:24.278Z,18.23
2018-05-26T21:11:30.210Z,18.18
2018-05-26T21:14:36.237Z,18.10
2018-05-26T21:17:42.165Z,17.99
2018-05-26T21:20:47.371Z,17.91
2018-05-26T21:23:54.246Z,17.85
2018-05-26T21:26:59.450Z,17.81
2018-05-26T21:30:05.382Z,17.70
2018-05-26T21:33:10.664Z,17.66
2018-05-26T21:36:16.383Z,17.60
2018-05-26T21:39:22.142Z,17.56
2018-05-26T21:42:27.370Z,17.53
2018-05-26T21:45:32.579Z,17.52
2018-05-26T21:48:38.377Z,17.46
2018-05-26T21:51:43.626Z,17.38
2018-05-26T21:54:49.341Z,17.32
2018-05-26T21:57:55.488Z,17.29
2018-05-26T22:01:01.814Z,17.24
2018-05-26T22:04:07.362Z,17.19
2018-05-26T22:07:12.587Z,17.14
2018-05-26T22:10:18.910Z,17.06
2018-05-26T22:13:24.851Z,17.03
2018-05-26T22:16:31.028Z,17.03
2018-05-26T22:19:36.251Z,16.95
2018-05-26T22:22:41.467Z,16.93
2018-05-26T22:25:47.528Z,16.90
2018-05-26T22:28:52.734Z,16.87
2018-05-26T22:31:57.946Z,16.83
2018-05-26T22:35:03.142Z,16.82
2018-05-26T22:38:08.994Z,16.78
2018-05-26T22:41:15.323Z,16.70
2018-05-26T22:44:20.530Z,16.67
2018-05-26T22:47:25.814Z,16.64
2018-05-26T22:50:31.654Z,16.60
2018-05-26T22:53:37.878Z,16.54
2018-05-26T22:56:43.752Z,16.48
2018-05-26T22:59:48.970Z,16.45
2018-05-26T23:02:55.213Z,16.44
2018-05-26T23:06:00.739Z,16.38
2018-05-26T23:09:07.531Z,16.35
2018-05-26T23:12:13.348Z,16.32
2018-05-26T23:15:18.570Z,16.24
2018-05-26T23:18:23.797Z,16.22
2018-05-26T23:21:30.404Z,16.21
2018-05-26T23:24:36.843Z,16.18
2018-05-26T23:27:42.763Z,16.17
2018-05-26T23:30:47.982Z,16.12
2018-05-26T23:33:53.200Z,16.11
2018-05-26T23:36:58.438Z,16.11
2018-05-26T23:40:03.416Z,16.09
2018-05-26T23:43:09.158Z,16.02
2018-05-26T23:46:15.225Z,16.03
2018-05-26T23:49:21.387Z,16.00
2018-05-26T23:52:27.429Z,16.01
2018-05-26T23:55:33.562Z,15.97
2018-05-26T23:58:39.602Z,15.94
